sensor_id;sensor_type;location;lat;lon;timestamp;pressure;altitude;pressure_sealevel;temperature;humidity
17593;BME280;8915;51.760;14.300;2023-03-04T00:00:48;101170.38;;;0.19;100.00
17593;BME280;8915;51.760;14.300;2023-03-04T00:03:15;101175.56;;;0.21;100.00
17593;BME280;8915;51.760;14.300;2023-03-04T00:05:41;101169.66;;;0.23;100.00
17593;BME280;8915;51.760;14.300;2023-03-04T00:08:08;101161.16;;;0.26;100.00
17593;BME280;8915;51.760;14.300;2023-03-04T00:10:36;101163.75;;;0.27;100.00
17593;BME280;8915;51.760;14.300;2023-03-04T00:13:02;101171.41;;;0.26;100.00
17593;BME280;8915;51.760;14.300;2023-03-04T00:15:29;101162.00;;;0.26;100.00
17593;BME280;8915;51.760;14.300;2023-03-04T00:17:55;101156.88;;;0.25;100.00
17593;BME280;8915;51.760;14.300;2023-03-04T00:20:21;101161.19;;;0.27;100.00
17593;BME280;8915;51.760;14.300;2023-03-04T00:22:48;101150.13;;;0.28;100.00
17593;BME280;8915;51.760;14.300;2023-03-04T00:25:14;101145.81;;;0.27;100.00
17593;BME280;8915;51.760;14.300;2023-03-04T00:27:42;101148.41;;;0.29;100.00
17593;BME280;8915;51.760;14.300;2023-03-04T00:30:09;101137.31;;;0.30;100.00
17593;BME280;8915;51.760;14.300;2023-03-04T00:32:36;101139.84;;;0.28;100.00
17593;BME280;8915;51.760;14.300;2023-03-04T00:35:04;101139.00;;;0.29;100.00
17593;BME280;8915;51.760;14.300;2023-03-04T00:37:31;101124.47;;;0.30;100.00
17593;BME280;8915;51.760;14.300;2023-03-04T00:39:57;101121.06;;;0.29;100.00
17593;BME280;8915;51.760;14.300;2023-03-04T00:42:24;101125.31;;;0.29;100.00
17593;BME280;8915;51.760;14.300;2023-03-04T00:44:51;101126.16;;;0.28;100.00
17593;BME280;8915;51.760;14.300;2023-03-04T00:47:18;101129.59;;;0.30;100.00
17593;BME280;8915;51.760;14.300;2023-03-04T00:49:44;101121.91;;;0.28;100.00
17593;BME280;8915;51.760;14.300;2023-03-04T00:52:10;101123.63;;;0.29;100.00
17593;BME280;8915;51.760;14.300;2023-03-04T00:54:37;101123.56;;;0.28;100.00
17593;BME280;8915;51.760;14.300;2023-03-04T00:57:04;101115.94;;;0.29;100.00
17593;BME280;8915;51.760;14.300;2023-03-04T00:59:31;101115.09;;;0.30;100.00
17593;BME280;8915;51.760;14.300;2023-03-04T01:02:00;101117.63;;;0.29;100.00
17593;BME280;8915;51.760;14.300;2023-03-04T01:04:26;101126.16;;;0.28;100.00
17593;BME280;8915;51.760;14.300;2023-03-04T01:06:53;101118.50;;;0.29;100.00
17593;BME280;8915;51.760;14.300;2023-03-04T01:09:20;101107.38;;;0.29;100.00
17593;BME280;8915;51.760;14.300;2023-03-04T01:11:46;101108.22;;;0.29;100.00
17593;BME280;8915;51.760;14.300;2023-03-04T01:14:13;101105.69;;;0.31;100.00
17593;BME280;8915;51.760;14.300;2023-03-04T01:16:39;101100.53;;;0.29;100.00
17593;BME280;8915;51.760;14.300;2023-03-04T01:19:07;101091.97;;;0.29;100.00
17593;BME280;8915;51.760;14.300;2023-03-04T01:21:35;101083.44;;;0.30;100.00
17593;BME280;8915;51.760;14.300;2023-03-04T01:24:02;101071.47;;;0.29;100.00
17593;BME280;8915;51.760;14.300;2023-03-04T01:26:29;101076.59;;;0.29;100.00
17593;BME280;8915;51.760;14.300;2023-03-04T01:28:55;101062.91;;;0.28;100.00
17593;BME280;8915;51.760;14.300;2023-03-04T01:31:22;101065.47;;;0.28;100.00
17593;BME280;8915;51.760;14.300;2023-03-04T01:33:50;101052.66;;;0.30;100.00
17593;BME280;8915;51.760;14.300;2023-03-04T01:36:18;101049.28;;;0.31;100.00
17593;BME280;8915;51.760;14.300;2023-03-04T01:38:44;101046.69;;;0.31;100.00
17593;BME280;8915;51.760;14.300;2023-03-04T01:41:12;101027.88;;;0.30;100.00
17593;BME280;8915;51.760;14.300;2023-03-04T01:43:39;101035.59;;;0.30;100.00
17593;BME280;8915;51.760;14.300;2023-03-04T01:46:06;101027.94;;;0.32;100.00
17593;BME280;8915;51.760;14.300;2023-03-04T01:48:35;101012.53;;;0.32;100.00
17593;BME280;8915;51.760;14.300;2023-03-04T01:51:09;101015.09;;;0.32;100.00
17593;BME280;8915;51.760;14.300;2023-03-04T01:53:39;101015.91;;;0.31;100.00
17593;BME280;8915;51.760;14.300;2023-03-04T01:56:13;101014.22;;;0.31;100.00
17593;BME280;8915;51.760;14.300;2023-03-04T01:58:40;101009.09;;;0.31;100.00
17593;BME280;8915;51.760;14.300;2023-03-04T02:01:08;101000.53;;;0.31;100.00
17593;BME280;8915;51.760;14.300;2023-03-04T02:03:37;101009.09;;;0.31;100.00
17593;BME280;8915;51.760;14.300;2023-03-04T02:06:03;101004.00;;;0.33;100.00
17593;BME280;8915;51.760;14.300;2023-03-04T02:08:30;101007.44;;;0.35;100.00
17593;BME280;8915;51.760;14.300;2023-03-04T02:10:58;101004.84;;;0.33;100.00
17593;BME280;8915;51.760;14.300;2023-03-04T02:13:25;101013.44;;;0.34;100.00
17593;BME280;8915;51.760;14.300;2023-03-04T02:15:51;101005.81;;;0.37;100.00
17593;BME280;8915;51.760;14.300;2023-03-04T02:18:20;101011.78;;;0.37;100.00
17593;BME280;8915;51.760;14.300;2023-03-04T02:20:55;101004.09;;;0.37;100.00
17593;BME280;8915;51.760;14.300;2023-03-04T02:23:31;101005.84;;;0.40;100.00
17593;BME280;8915;51.760;14.300;2023-03-04T02:26:12;101000.78;;;0.43;100.00
17593;BME280;8915;51.760;14.300;2023-03-04T02:28:39;101001.66;;;0.44;100.00
17593;BME280;8915;51.760;14.300;2023-03-04T02:31:05;101002.53;;;0.46;100.00
17593;BME280;8915;51.760;14.300;2023-03-04T02:33:32;100995.78;;;0.48;100.00
17593;BME280;8915;51.760;14.300;2023-03-04T02:35:58;101000.06;;;0.49;100.00
17593;BME280;8915;51.760;14.300;2023-03-04T02:38:25;100990.69;;;0.51;100.00
17593;BME280;8915;51.760;14.300;2023-03-04T02:40:53;100990.72;;;0.52;100.00
17593;BME280;8915;51.760;14.300;2023-03-04T02:43:22;100972.75;;;0.52;100.00
17593;BME280;8915;51.760;14.300;2023-03-04T02:45:50;100983.94;;;0.56;100.00
17593;BME280;8915;51.760;14.300;2023-03-04T02:48:18;100983.09;;;0.55;100.00
17593;BME280;8915;51.760;14.300;2023-03-04T02:50:47;100976.28;;;0.57;100.00
17593;BME280;8915;51.760;14.300;2023-03-04T02:53:15;100981.38;;;0.56;100.00
17593;BME280;8915;51.760;14.300;2023-03-04T02:55:42;100984.84;;;0.56;100.00
17593;BME280;8915;51.760;14.300;2023-03-04T02:58:10;100979.72;;;0.58;100.00
17593;BME280;8915;51.760;14.300;2023-03-04T03:00:39;100993.38;;;0.57;100.00
17593;BME280;8915;51.760;14.300;2023-03-04T03:03:06;100994.25;;;0.57;100.00
17593;BME280;8915;51.760;14.300;2023-03-04T03:05:35;100975.41;;;0.55;100.00
17593;BME280;8915;51.760;14.300;2023-03-04T03:08:02;100998.50;;;0.55;100.00
17593;BME280;8915;51.760;14.300;2023-03-04T03:10:30;100980.53;;;0.55;100.00
17593;BME280;8915;51.760;14.300;2023-03-04T03:12:57;100980.50;;;0.54;100.00
17593;BME280;8915;51.760;14.300;2023-03-04T03:15:23;100979.59;;;0.52;100.00
17593;BME280;8915;51.760;14.300;2023-03-04T03:17:51;100986.44;;;0.51;100.00
17593;BME280;8915;51.760;14.300;2023-03-04T03:20:18;100983.91;;;0.53;100.00
17593;BME280;8915;51.760;14.300;2023-03-04T03:22:45;100988.13;;;0.51;100.00
17593;BME280;8915;51.760;14.300;2023-03-04T03:25:12;100982.97;;;0.51;100.00
17593;BME280;8915;51.760;14.300;2023-03-04T03:27:39;100993.25;;;0.49;100.00
17593;BME280;8915;51.760;14.300;2023-03-04T03:30:08;100996.66;;;0.50;100.00
17593;BME280;8915;51.760;14.300;2023-03-04T03:32:35;101000.94;;;0.49;100.00
17593;BME280;8915;51.760;14.300;2023-03-04T03:35:04;101001.75;;;0.48;100.00
17593;BME280;8915;51.760;14.300;2023-03-04T03:37:30;101004.31;;;0.48;100.00
17593;BME280;8915;51.760;14.300;2023-03-04T03:39:57;100993.22;;;0.48;100.00
17593;BME280;8915;51.760;14.300;2023-03-04T03:42:23;101004.38;;;0.50;100.00
17593;BME280;8915;51.760;14.300;2023-03-04T03:44:50;101007.75;;;0.49;100.00
17593;BME280;8915;51.760;14.300;2023-03-04T03:47:16;101006.06;;;0.49;100.00
17593;BME280;8915;51.760;14.300;2023-03-04T03:49:42;101000.94;;;0.49;100.00
17593;BME280;8915;51.760;14.300;2023-03-04T03:52:11;100981.22;;;0.48;100.00
17593;BME280;8915;51.760;14.300;2023-03-04T03:54:37;100976.94;;;0.47;100.00
17593;BME280;8915;51.760;14.300;2023-03-04T03:57:04;100972.66;;;0.46;100.00
17593;BME280;8915;51.760;14.300;2023-03-04T03:59:30;100967.56;;;0.48;100.00
17593;BME280;8915;51.760;14.300;2023-03-04T04:01:56;100958.97;;;0.47;100.00
17593;BME280;8915;51.760;14.300;2023-03-04T04:04:23;100958.09;;;0.47;100.00
17593;BME280;8915;51.760;14.300;2023-03-04T04:06:49;100959.81;;;0.46;100.00
17593;BME280;8915;51.760;14.300;2023-03-04T04:09:17;100958.94;;;0.44;100.00
17593;BME280;8915;51.760;14.300;2023-03-04T04:11:44;100957.22;;;0.45;100.00
17593;BME280;8915;51.760;14.300;2023-03-04T04:14:12;100952.09;;;0.45;100.00
17593;BME280;8915;51.760;14.300;2023-03-04T04:16:38;100953.78;;;0.44;100.00
17593;BME280;8915;51.760;14.300;2023-03-04T04:19:05;100944.38;;;0.45;100.00
17593;BME280;8915;51.760;14.300;2023-03-04T04:21:31;100940.06;;;0.44;100.00
17593;BME280;8915;51.760;14.300;2023-03-04T04:23:58;100939.25;;;0.45;100.00
17593;BME280;8915;51.760;14.300;2023-03-04T04:26:26;100929.81;;;0.44;100.00
17593;BME280;8915;51.760;14.300;2023-03-04T04:28:52;100934.94;;;0.44;100.00
17593;BME280;8915;51.760;14.300;2023-03-04T04:31:19;100917.84;;;0.43;100.00
17593;BME280;8915;51.760;14.300;2023-03-04T04:33:45;100919.53;;;0.42;100.00
17593;BME280;8915;51.760;14.300;2023-03-04T04:36:12;100922.09;;;0.42;100.00
17593;BME280;8915;51.760;14.300;2023-03-04T04:38:39;100907.47;;;0.38;100.00
17593;BME280;8915;51.760;14.300;2023-03-04T04:41:17;100909.19;;;0.37;100.00
17593;BME280;8915;51.760;14.300;2023-03-04T04:43:46;100903.16;;;0.35;100.00
17593;BME280;8915;51.760;14.300;2023-03-04T04:46:12;100897.19;;;0.36;100.00
17593;BME280;8915;51.760;14.300;2023-03-04T04:48:39;100903.19;;;0.37;100.00
17593;BME280;8915;51.760;14.300;2023-03-04T04:51:06;100892.94;;;0.37;100.00
17593;BME280;8915;51.760;14.300;2023-03-04T04:53:32;100888.63;;;0.36;100.00
17593;BME280;8915;51.760;14.300;2023-03-04T04:55:59;100888.66;;;0.37;100.00
17593;BME280;8915;51.760;14.300;2023-03-04T04:58:25;100886.94;;;0.38;100.00
17593;BME280;8915;51.760;14.300;2023-03-04T05:00:55;100890.38;;;0.37;100.00
17593;BME280;8915;51.760;14.300;2023-03-04T05:03:22;100886.91;;;0.36;100.00
17593;BME280;8915;51.760;14.300;2023-03-04T05:05:48;100888.69;;;0.39;100.00
17593;BME280;8915;51.760;14.300;2023-03-04T05:08:14;100892.13;;;0.40;100.00
17593;BME280;8915;51.760;14.300;2023-03-04T05:10:41;100884.47;;;0.41;100.00
17593;BME280;8915;51.760;14.300;2023-03-04T05:13:07;100886.16;;;0.42;100.00
17593;BME280;8915;51.760;14.300;2023-03-04T05:15:33;100887.91;;;0.43;100.00
17593;BME280;8915;51.760;14.300;2023-03-04T05:18:01;100887.06;;;0.43;100.00
17593;BME280;8915;51.760;14.300;2023-03-04T05:20:27;100882.81;;;0.45;100.00
17593;BME280;8915;51.760;14.300;2023-03-04T05:22:54;100885.34;;;0.43;100.00
17593;BME280;8915;51.760;14.300;2023-03-04T05:25:20;100890.47;;;0.43;100.00
17593;BME280;8915;51.760;14.300;2023-03-04T05:27:47;100892.22;;;0.44;100.00
17593;BME280;8915;51.760;14.300;2023-03-04T05:30:13;100900.78;;;0.45;100.00
17593;BME280;8915;51.760;14.300;2023-03-04T05:32:40;100894.78;;;0.46;100.00
17593;BME280;8915;51.760;14.300;2023-03-04T05:35:08;100886.28;;;0.47;100.00
17593;BME280;8915;51.760;14.300;2023-03-04T05:37:35;100887.97;;;0.46;100.00
17593;BME280;8915;51.760;14.300;2023-03-04T05:40:02;100892.22;;;0.46;100.00
17593;BME280;8915;51.760;14.300;2023-03-04T05:42:29;100890.53;;;0.46;100.00
17593;BME280;8915;51.760;14.300;2023-03-04T05:44:55;100888.88;;;0.48;100.00
17593;BME280;8915;51.760;14.300;2023-03-04T05:47:21;100886.31;;;0.48;100.00
17593;BME280;8915;51.760;14.300;2023-03-04T05:49:48;100894.94;;;0.52;100.00
17593;BME280;8915;51.760;14.300;2023-03-04T05:52:15;100882.91;;;0.51;100.00
17593;BME280;8915;51.760;14.300;2023-03-04T05:54:42;100890.63;;;0.51;100.00
17593;BME280;8915;51.760;14.300;2023-03-04T05:57:08;100890.63;;;0.51;100.00
17593;BME280;8915;51.760;14.300;2023-03-04T05:59:35;100887.25;;;0.53;100.00
17593;BME280;8915;51.760;14.300;2023-03-04T06:02:01;100890.66;;;0.52;100.00
17593;BME280;8915;51.760;14.300;2023-03-04T06:04:27;100876.97;;;0.52;100.00
17593;BME280;8915;51.760;14.300;2023-03-04T06:06:54;100891.53;;;0.54;100.00
17593;BME280;8915;51.760;14.300;2023-03-04T06:09:22;100889.84;;;0.55;100.00
17593;BME280;8915;51.760;14.300;2023-03-04T06:11:50;100881.31;;;0.56;100.00
17593;BME280;8915;51.760;14.300;2023-03-04T06:14:17;100883.03;;;0.57;100.00
17593;BME280;8915;51.760;14.300;2023-03-04T06:16:43;100885.63;;;0.57;100.00
17593;BME280;8915;51.760;14.300;2023-03-04T06:19:09;100878.81;;;0.59;100.00
17593;BME280;8915;51.760;14.300;2023-03-04T06:21:36;100877.97;;;0.60;100.00
17593;BME280;8915;51.760;14.300;2023-03-04T06:24:03;100890.84;;;0.62;100.00
17593;BME280;8915;51.760;14.300;2023-03-04T06:26:31;100890.00;;;0.63;100.00
17593;BME280;8915;51.760;14.300;2023-03-04T06:28:57;100889.16;;;0.64;100.00
17593;BME280;8915;51.760;14.300;2023-03-04T06:31:23;100880.63;;;0.65;100.00
17593;BME280;8915;51.760;14.300;2023-03-04T06:33:50;100880.66;;;0.66;100.00
17593;BME280;8915;51.760;14.300;2023-03-04T06:36:16;100883.22;;;0.66;100.00
17593;BME280;8915;51.760;14.300;2023-03-04T06:38:43;100890.09;;;0.67;100.00
17593;BME280;8915;51.760;14.300;2023-03-04T06:41:10;100885.84;;;0.69;100.00
17593;BME280;8915;51.760;14.300;2023-03-04T06:43:38;100886.69;;;0.70;100.00
17593;BME280;8915;51.760;14.300;2023-03-04T06:46:06;100891.00;;;0.71;100.00
17593;BME280;8915;51.760;14.300;2023-03-04T06:48:32;100884.19;;;0.73;100.00
17593;BME280;8915;51.760;14.300;2023-03-04T06:51:04;100892.78;;;0.75;100.00
17593;BME280;8915;51.760;14.300;2023-03-04T06:53:30;100890.25;;;0.77;100.00
17593;BME280;8915;51.760;14.300;2023-03-04T06:55:57;100889.44;;;0.79;100.00
17593;BME280;8915;51.760;14.300;2023-03-04T06:58:23;100891.16;;;0.80;100.00
17593;BME280;8915;51.760;14.300;2023-03-04T07:00:51;100890.38;;;0.83;100.00
17593;BME280;8915;51.760;14.300;2023-03-04T07:03:17;100884.38;;;0.84;100.00
17593;BME280;8915;51.760;14.300;2023-03-04T07:05:44;100884.41;;;0.85;100.00
17593;BME280;8915;51.760;14.300;2023-03-04T07:08:13;100886.16;;;0.86;100.00
17593;BME280;8915;51.760;14.300;2023-03-04T07:10:39;100882.75;;;0.89;100.00
17593;BME280;8915;51.760;14.300;2023-03-04T07:13:06;100882.81;;;0.92;100.00
17593;BME280;8915;51.760;14.300;2023-03-04T07:15:32;100895.69;;;0.93;100.00
17593;BME280;8915;51.760;14.300;2023-03-04T07:18:01;100887.16;;;0.96;100.00
17593;BME280;8915;51.760;14.300;2023-03-04T07:20:28;100888.88;;;0.96;100.00
17593;BME280;8915;51.760;14.300;2023-03-04T07:22:54;100890.69;;;1.01;100.00
17593;BME280;8915;51.760;14.300;2023-03-04T07:25:20;100883.84;;;1.02;100.00
17593;BME280;8915;51.760;14.300;2023-03-04T07:27:47;100881.31;;;1.05;100.00
17593;BME280;8915;51.760;14.300;2023-03-04T07:30:13;100890.81;;;1.07;100.00
17593;BME280;8915;51.760;14.300;2023-03-04T07:32:40;100893.41;;;1.10;100.00
17593;BME280;8915;51.760;14.300;2023-03-04T07:35:08;100891.72;;;1.12;100.00
17593;BME280;8915;51.760;14.300;2023-03-04T07:37:34;100884.91;;;1.16;100.00
17593;BME280;8915;51.760;14.300;2023-03-04T07:40:01;100879.88;;;1.21;100.00
17593;BME280;8915;51.760;14.300;2023-03-04T07:42:27;100883.38;;;1.26;100.00
17593;BME280;8915;51.760;14.300;2023-03-04T07:45:01;100874.84;;;1.28;100.00
17593;BME280;8915;51.760;14.300;2023-03-04T07:47:28;100882.56;;;1.30;100.00
17593;BME280;8915;51.760;14.300;2023-03-04T07:49:54;100883.50;;;1.33;100.00
17593;BME280;8915;51.760;14.300;2023-03-04T07:52:22;100881.84;;;1.36;100.00
17593;BME280;8915;51.760;14.300;2023-03-04T07:54:51;100885.34;;;1.41;100.00
17593;BME280;8915;51.760;14.300;2023-03-04T07:57:17;100876.81;;;1.43;100.00
17593;BME280;8915;51.760;14.300;2023-03-04T07:59:44;100875.97;;;1.46;100.00
17593;BME280;8915;51.760;14.300;2023-03-04T08:02:10;100874.31;;;1.49;100.00
17593;BME280;8915;51.760;14.300;2023-03-04T08:04:37;100877.78;;;1.51;100.00
17593;BME280;8915;51.760;14.300;2023-03-04T08:07:03;100871.78;;;1.52;100.00
17593;BME280;8915;51.760;14.300;2023-03-04T08:09:31;100874.38;;;1.54;100.00
17593;BME280;8915;51.760;14.300;2023-03-04T08:11:57;100874.50;;;1.60;100.00
17593;BME280;8915;51.760;14.300;2023-03-04T08:14:24;100875.38;;;1.62;100.00
17593;BME280;8915;51.760;14.300;2023-03-04T08:16:50;100879.75;;;1.68;100.00
17593;BME280;8915;51.760;14.300;2023-03-04T08:19:16;100869.47;;;1.68;100.00
17593;BME280;8915;51.760;14.300;2023-03-04T08:21:43;100876.34;;;1.72;100.00
17593;BME280;8915;51.760;14.300;2023-03-04T08:24:10;100867.75;;;1.70;100.00
17593;BME280;8915;51.760;14.300;2023-03-04T08:26:39;100871.19;;;1.70;100.00
17593;BME280;8915;51.760;14.300;2023-03-04T08:29:08;100878.09;;;1.73;100.00
17593;BME280;8915;51.760;14.300;2023-03-04T08:32:01;100869.59;;;1.79;100.00
17593;BME280;8915;51.760;14.300;2023-03-04T08:34:28;100875.59;;;1.79;100.00
17593;BME280;8915;51.760;14.300;2023-03-04T08:36:54;100872.16;;;1.79;100.00
17593;BME280;8915;51.760;14.300;2023-03-04T08:39:21;100872.28;;;1.85;100.00
17593;BME280;8915;51.760;14.300;2023-03-04T08:41:48;100868.97;;;1.94;100.00
17593;BME280;8915;51.760;14.300;2023-03-04T08:44:15;100867.31;;;2.02;100.00
17593;BME280;8915;51.760;14.300;2023-03-04T08:46:42;100870.06;;;2.16;100.00
17593;BME280;8915;51.760;14.300;2023-03-04T08:49:10;100858.13;;;2.21;100.00
17593;BME280;8915;51.760;14.300;2023-03-04T08:51:37;100861.69;;;2.31;100.00
17593;BME280;8915;51.760;14.300;2023-03-04T08:54:04;100854.91;;;2.39;100.00
17593;BME280;8915;51.760;14.300;2023-03-04T08:56:30;100850.69;;;2.45;100.00
17593;BME280;8915;51.760;14.300;2023-03-04T08:58:58;100861.03;;;2.49;100.00
17593;BME280;8915;51.760;14.300;2023-03-04T09:01:25;100857.59;;;2.51;100.00
17593;BME280;8915;51.760;14.300;2023-03-04T09:03:51;100860.28;;;2.59;100.00
17593;BME280;8915;51.760;14.300;2023-03-04T09:06:18;100854.28;;;2.61;100.00
17593;BME280;8915;51.760;14.300;2023-03-04T09:08:44;100862.09;;;2.68;100.00
17593;BME280;8915;51.760;14.300;2023-03-04T09:11:12;100851.78;;;2.68;100.00
17593;BME280;8915;51.760;14.300;2023-03-04T09:13:38;100848.44;;;2.76;100.00
17593;BME280;8915;51.760;14.300;2023-03-04T09:16:09;100857.97;;;2.85;100.00
17593;BME280;8915;51.760;14.300;2023-03-04T09:18:36;100848.56;;;2.89;100.00
17593;BME280;8915;51.760;14.300;2023-03-04T09:21:04;100855.34;;;2.80;100.00
17593;BME280;8915;51.760;14.300;2023-03-04T09:23:30;100851.09;;;2.86;100.00
17593;BME280;8915;51.760;14.300;2023-03-04T09:25:57;100846.84;;;2.89;100.00
17593;BME280;8915;51.760;14.300;2023-03-04T09:28:23;100837.34;;;2.87;100.00
17593;BME280;8915;51.760;14.300;2023-03-04T09:30:50;100839.16;;;2.95;100.00
17593;BME280;8915;51.760;14.300;2023-03-04T09:33:18;100840.03;;;2.96;100.00
17593;BME280;8915;51.760;14.300;2023-03-04T09:35:44;100840.91;;;2.98;100.00
17593;BME280;8915;51.760;14.300;2023-03-04T09:38:13;100830.56;;;2.95;100.00
17593;BME280;8915;51.760;14.300;2023-03-04T09:40:41;100839.97;;;2.90;100.00
17593;BME280;8915;51.760;14.300;2023-03-04T09:43:13;100844.25;;;2.89;100.00
17593;BME280;8915;51.760;14.300;2023-03-04T09:45:46;100832.25;;;2.91;100.00
17593;BME280;8915;51.760;14.300;2023-03-04T09:48:19;100834.06;;;3.01;100.00
17593;BME280;8915;51.760;14.300;2023-03-04T09:50:56;100828.94;;;3.05;100.00
17593;BME280;8915;51.760;14.300;2023-03-04T09:53:33;100827.31;;;3.17;100.00
17593;BME280;8915;51.760;14.300;2023-03-04T09:56:04;100822.13;;;3.16;100.00
17593;BME280;8915;51.760;14.300;2023-03-04T09:58:38;100814.50;;;3.30;100.00
17593;BME280;8915;51.760;14.300;2023-03-04T10:01:12;100808.56;;;3.40;100.00
17593;BME280;8915;51.760;14.300;2023-03-04T10:03:45;100812.09;;;3.56;100.00
17593;BME280;8915;51.760;14.300;2023-03-04T10:06:16;100823.28;;;3.58;100.00
17593;BME280;8915;51.760;14.300;2023-03-04T10:08:49;100817.25;;;3.56;100.00
17593;BME280;8915;51.760;14.300;2023-03-04T10:11:20;100814.78;;;3.77;100.00
17593;BME280;8915;51.760;14.300;2023-03-04T10:14:01;100815.69;;;3.84;100.00
17593;BME280;8915;51.760;14.300;2023-03-04T10:16:32;100814.84;;;3.93;100.00
17593;BME280;8915;51.760;14.300;2023-03-04T10:19:18;100816.63;;;4.08;100.00
17593;BME280;8915;51.760;14.300;2023-03-04T10:21:48;100814.94;;;4.17;100.00
17593;BME280;8915;51.760;14.300;2023-03-04T10:24:17;100821.84;;;4.26;100.00
17593;BME280;8915;51.760;14.300;2023-03-04T10:26:45;100825.31;;;4.39;100.00
17593;BME280;8915;51.760;14.300;2023-03-04T10:29:14;100824.47;;;4.45;100.00
17593;BME280;8915;51.760;14.300;2023-03-04T10:31:41;100824.53;;;4.65;100.00
17593;BME280;8915;51.760;14.300;2023-03-04T10:34:11;100814.19;;;4.63;100.00
17593;BME280;8915;51.760;14.300;2023-03-04T10:36:52;100813.31;;;4.66;100.00
17593;BME280;8915;51.760;14.300;2023-03-04T10:39:23;100821.06;;;4.67;100.00
17593;BME280;8915;51.760;14.300;2023-03-04T10:41:56;100815.03;;;4.61;100.00
17593;BME280;8915;51.760;14.300;2023-03-04T10:44:22;100828.81;;;4.49;100.00
17593;BME280;8915;51.760;14.300;2023-03-04T10:46:52;100815.81;;;4.29;100.00
17593;BME280;8915;51.760;14.300;2023-03-04T10:49:21;100812.38;;;4.25;100.00
17593;BME280;8915;51.760;14.300;2023-03-04T10:51:51;100812.31;;;4.05;100.00
17593;BME280;8915;51.760;14.300;2023-03-04T10:54:26;100810.63;;;4.10;100.00
17593;BME280;8915;51.760;14.300;2023-03-04T10:56:56;100810.63;;;4.09;100.00
17593;BME280;8915;51.760;14.300;2023-03-04T10:59:38;100798.56;;;4.09;100.00
17593;BME280;8915;51.760;14.300;2023-03-04T11:02:20;100799.44;;;4.16;100.00
17593;BME280;8915;51.760;14.300;2023-03-04T11:04:54;100796.03;;;4.26;100.00
17593;BME280;8915;51.760;14.300;2023-03-04T11:07:23;100799.50;;;4.31;100.00
17593;BME280;8915;51.760;14.300;2023-03-04T11:09:52;100810.69;;;4.33;100.00
17593;BME280;8915;51.760;14.300;2023-03-04T11:12:21;100797.81;;;4.46;100.00
17593;BME280;8915;51.760;14.300;2023-03-04T11:14:57;100800.41;;;4.64;100.00
17593;BME280;8915;51.760;14.300;2023-03-04T11:17:25;100796.97;;;4.67;100.00
17593;BME280;8915;51.760;14.300;2023-03-04T11:19:57;100803.88;;;4.74;100.00
17593;BME280;8915;51.760;14.300;2023-03-04T11:22:29;100804.72;;;4.68;100.00
17593;BME280;8915;51.760;14.300;2023-03-04T11:24:59;100801.28;;;4.66;100.00
17593;BME280;8915;51.760;14.300;2023-03-04T11:27:36;100794.38;;;4.64;100.00
17593;BME280;8915;51.760;14.300;2023-03-04T11:30:28;100795.25;;;4.70;100.00
17593;BME280;8915;51.760;14.300;2023-03-04T11:33:08;100798.69;;;4.66;100.00
17593;BME280;8915;51.760;14.300;2023-03-04T11:35:47;100804.72;;;4.70;100.00
17593;BME280;8915;51.760;14.300;2023-03-04T11:38:19;100805.59;;;4.72;100.00
17593;BME280;8915;51.760;14.300;2023-03-04T11:40:51;100801.28;;;4.76;100.00
17593;BME280;8915;51.760;14.300;2023-03-04T11:43:22;100796.97;;;4.78;100.00
17593;BME280;8915;51.760;14.300;2023-03-04T11:46:28;100803.00;;;4.78;100.00
17593;BME280;8915;51.760;14.300;2023-03-04T11:49:14;100808.16;;;4.61;100.00
17593;BME280;8915;51.760;14.300;2023-03-04T11:51:53;100803.84;;;4.54;100.00
17593;BME280;8915;51.760;14.300;2023-03-04T11:54:28;100797.81;;;4.47;100.00
17593;BME280;8915;51.760;14.300;2023-03-04T11:57:00;100795.22;;;4.47;100.00
17593;BME280;8915;51.760;14.300;2023-03-04T11:59:36;100794.38;;;4.53;100.00
17593;BME280;8915;51.760;14.300;2023-03-04T12:02:12;100790.94;;;4.54;100.00
17593;BME280;8915;51.760;14.300;2023-03-04T12:04:53;100799.53;;;4.53;100.00
17593;BME280;8915;51.760;14.300;2023-03-04T12:07:38;100787.47;;;4.55;100.00
17593;BME280;8915;51.760;14.300;2023-03-04T12:10:17;100795.25;;;4.57;100.00
17593;BME280;8915;51.760;14.300;2023-03-04T12:13:01;100801.25;;;4.57;100.00
17593;BME280;8915;51.760;14.300;2023-03-04T12:15:39;100791.78;;;4.64;100.00
17593;BME280;8915;51.760;14.300;2023-03-04T12:18:19;100798.69;;;4.72;100.00
17593;BME280;8915;51.760;14.300;2023-03-04T12:20:58;100785.78;;;4.77;100.00
17593;BME280;8915;51.760;14.300;2023-03-04T12:23:43;100793.53;;;4.83;100.00
17593;BME280;8915;51.760;14.300;2023-03-04T12:26:23;100786.66;;;4.93;100.00
17593;BME280;8915;51.760;14.300;2023-03-04T12:28:56;100790.09;;;4.95;100.00
17593;BME280;8915;51.760;14.300;2023-03-04T12:31:35;100786.63;;;4.90;100.00
17593;BME280;8915;51.760;14.300;2023-03-04T12:34:33;100813.34;;;4.83;100.00
17593;BME280;8915;51.760;14.300;2023-03-04T12:37:16;100794.41;;;4.78;100.00
17593;BME280;8915;51.760;14.300;2023-03-04T12:40:01;100800.44;;;4.73;100.00
17593;BME280;8915;51.760;14.300;2023-03-04T12:42:37;100796.97;;;4.70;100.00
17593;BME280;8915;51.760;14.300;2023-03-04T12:45:15;100795.25;;;4.69;100.00
17593;BME280;8915;51.760;14.300;2023-03-04T12:47:51;100778.88;;;4.74;100.00
17593;BME280;8915;51.760;14.300;2023-03-04T12:50:29;100777.16;;;4.77;100.00
17593;BME280;8915;51.760;14.300;2023-03-04T12:53:01;100775.44;;;4.85;100.00
17593;BME280;8915;51.760;14.300;2023-03-04T12:55:38;100775.44;;;4.85;100.00
17593;BME280;8915;51.760;14.300;2023-03-04T12:58:13;100778.88;;;4.85;100.00
17593;BME280;8915;51.760;14.300;2023-03-04T13:00:48;100778.03;;;4.86;100.00